LFOB/BVA METAR and TAF weather

Enter ICAO airport designator
Station Type Date Time Source
LFOB METAR 2020/01/23 21:00 UTC NOAA

LFOB 232100Z AUTO 11004KT 5000 BR OVC005 02/01 Q1026 BECMG 2000 BR


Station Type Date Time Source
LFOB Decoded METAR 2020/01/23 21:00 UTC NOAA

Beauvais, France (LFOB) 49-28N 002-07E 111M
Jan 23, 2020 - 04:00 PM EST / 2020.01.23 2100 UTC
Wind: from the ESE (110 degrees) at 5 MPH (4 KT):0
Visibility: 3 mile(s):0
Sky conditions: overcast
Weather: mist
Temperature: 35 F (2 C)
Windchill: 30 F (-1 C):1
Dew Point: 33 F (1 C)
Relative Humidity: 93%
Pressure (altimeter): 30.30 in. Hg (1026 hPa)
ob: LFOB 232100Z AUTO 11004KT 5000 BR OVC005 02/01 Q1026 BECMG 2000 BR
cycle: 21

Station Type Date Time Source
LFOB TAF 2020/01/23 18:21 UTC NOAA

TAF TAF LFOB 231700Z 2318/2418 06008KT 4000 BR OVC003
BECMG 2319/2322 2000 BR PROB30
TEMPO 2400/2409 0500 FZFG VV///
BECMG 2410/2413 7000 NSW OVC007

Example: see airport list